sensor_id;sensor_type;location;lat;lon;timestamp;pressure;altitude;pressure_sealevel;temperature;humidity
11806;BME280;5960;42.602;23.482;2022-07-18T00:00:27;94128.31;;;20.45;39.80
11806;BME280;5960;42.602;23.482;2022-07-18T00:02:54;94135.88;;;20.49;39.92
11806;BME280;5960;42.602;23.482;2022-07-18T00:05:21;94122.34;;;20.55;39.79
11806;BME280;5960;42.602;23.482;2022-07-18T00:07:48;94124.69;;;20.52;39.86
11806;BME280;5960;42.602;23.482;2022-07-18T00:10:15;94122.47;;;20.49;40.24
11806;BME280;5960;42.602;23.482;2022-07-18T00:12:42;94130.63;;;20.54;40.65
11806;BME280;5960;42.602;23.482;2022-07-18T00:15:09;94130.63;;;20.54;40.89
11806;BME280;5960;42.602;23.482;2022-07-18T00:17:38;94129.34;;;20.44;41.52
11806;BME280;5960;42.602;23.482;2022-07-18T00:20:07;94119.47;;;20.45;42.35
11806;BME280;5960;42.602;23.482;2022-07-18T00:22:35;94114.56;;;20.54;42.82
11806;BME280;5960;42.602;23.482;2022-07-18T00:25:03;94126.44;;;20.58;43.01
11806;BME280;5960;42.602;23.482;2022-07-18T00:27:30;94117.84;;;20.56;43.53
11806;BME280;5960;42.602;23.482;2022-07-18T00:29:57;94123.66;;;20.53;43.89
11806;BME280;5960;42.602;23.482;2022-07-18T00:32:23;94117.13;;;20.37;44.32
11806;BME280;5960;42.602;23.482;2022-07-18T00:34:51;94117.84;;;20.32;44.77
11806;BME280;5960;42.602;23.482;2022-07-18T00:37:18;94120.75;;;20.30;44.98
11806;BME280;5960;42.602;23.482;2022-07-18T00:39:45;94116.91;;;20.38;44.77
11806;BME280;5960;42.602;23.482;2022-07-18T00:42:12;94116.81;;;20.33;44.87
11806;BME280;5960;42.602;23.482;2022-07-18T00:44:39;94112.72;;;20.30;45.12
11806;BME280;5960;42.602;23.482;2022-07-18T00:47:05;94112.13;;;20.28;45.44
11806;BME280;5960;42.602;23.482;2022-07-18T00:49:32;94111.66;;;20.20;45.12
11806;BME280;5960;42.602;23.482;2022-07-18T00:52:01;94112.38;;;20.15;45.41
11806;BME280;5960;42.602;23.482;2022-07-18T00:54:28;94126.00;;;20.13;45.19
11806;BME280;5960;42.602;23.482;2022-07-18T00:56:56;94120.06;;;20.11;44.94
11806;BME280;5960;42.602;23.482;2022-07-18T00:59:24;94124.94;;;20.14;44.71
11806;BME280;5960;42.602;23.482;2022-07-18T01:02:11;94116.41;;;19.94;45.24
11806;BME280;5960;42.602;23.482;2022-07-18T01:04:38;94114.44;;;19.89;45.00
11806;BME280;5960;42.602;23.482;2022-07-18T01:07:06;94121.16;;;19.80;44.78
11806;BME280;5960;42.602;23.482;2022-07-18T01:09:33;94124.84;;;19.67;44.86
11806;BME280;5960;42.602;23.482;2022-07-18T01:12:00;94122.25;;;19.60;44.41
11806;BME280;5960;42.602;23.482;2022-07-18T01:14:28;94119.13;;;19.63;43.45
11806;BME280;5960;42.602;23.482;2022-07-18T01:16:56;94122.03;;;19.62;43.05
11806;BME280;5960;42.602;23.482;2022-07-18T01:19:23;94123.91;;;19.73;42.41
11806;BME280;5960;42.602;23.482;2022-07-18T01:21:51;94126.97;;;19.77;42.22
11806;BME280;5960;42.602;23.482;2022-07-18T01:24:18;94122.06;;;19.74;42.41
11806;BME280;5960;42.602;23.482;2022-07-18T01:26:45;94119.59;;;19.60;40.95
11806;BME280;5960;42.602;23.482;2022-07-18T01:29:11;94123.56;;;19.69;41.14
11806;BME280;5960;42.602;23.482;2022-07-18T01:31:38;94115.19;;;19.66;40.61
11806;BME280;5960;42.602;23.482;2022-07-18T01:34:05;94115.22;;;19.78;40.12
11806;BME280;5960;42.602;23.482;2022-07-18T01:36:31;94123.34;;;19.83;39.78
11806;BME280;5960;42.602;23.482;2022-07-18T01:39:00;94118.13;;;19.76;40.23
11806;BME280;5960;42.602;23.482;2022-07-18T01:41:26;94117.53;;;19.74;39.59
11806;BME280;5960;42.602;23.482;2022-07-18T01:43:53;94123.31;;;19.71;39.71
11806;BME280;5960;42.602;23.482;2022-07-18T01:46:20;94117.59;;;19.55;39.87
11806;BME280;5960;42.602;23.482;2022-07-18T01:48:47;94118.66;;;19.54;40.39
11806;BME280;5960;42.602;23.482;2022-07-18T01:51:13;94116.56;;;19.57;40.50
11806;BME280;5960;42.602;23.482;2022-07-18T01:53:41;94109.72;;;19.61;40.03
11806;BME280;5960;42.602;23.482;2022-07-18T01:56:12;94109.44;;;19.50;39.77
11806;BME280;5960;42.602;23.482;2022-07-18T01:58:39;94115.97;;;19.54;39.83
11806;BME280;5960;42.602;23.482;2022-07-18T02:01:06;94114.81;;;19.62;39.05
11806;BME280;5960;42.602;23.482;2022-07-18T02:03:32;94106.44;;;19.47;39.38
11806;BME280;5960;42.602;23.482;2022-07-18T02:05:59;94112.31;;;19.37;38.83
11806;BME280;5960;42.602;23.482;2022-07-18T02:08:26;94114.16;;;19.36;38.90
11806;BME280;5960;42.602;23.482;2022-07-18T02:10:53;94109.81;;;19.23;38.96
11806;BME280;5960;42.602;23.482;2022-07-18T02:13:21;94112.84;;;19.15;38.84
11806;BME280;5960;42.602;23.482;2022-07-18T02:15:48;94118.72;;;19.05;38.93
11806;BME280;5960;42.602;23.482;2022-07-18T02:18:14;94121.81;;;19.02;39.35
11806;BME280;5960;42.602;23.482;2022-07-18T02:20:41;94122.63;;;19.03;39.28
11806;BME280;5960;42.602;23.482;2022-07-18T02:23:08;94117.09;;;19.04;39.12
11806;BME280;5960;42.602;23.482;2022-07-18T02:25:35;94121.09;;;18.95;39.48
11806;BME280;5960;42.602;23.482;2022-07-18T02:28:02;94119.50;;;18.87;38.99
11806;BME280;5960;42.602;23.482;2022-07-18T02:30:30;94118.75;;;18.80;39.12
11806;BME280;5960;42.602;23.482;2022-07-18T02:32:57;94123.44;;;18.85;39.45
11806;BME280;5960;42.602;23.482;2022-07-18T02:35:24;94135.78;;;18.86;40.06
11806;BME280;5960;42.602;23.482;2022-07-18T02:37:51;94129.59;;;18.85;41.15
11806;BME280;5960;42.602;23.482;2022-07-18T02:40:17;94121.75;;;18.90;41.35
11806;BME280;5960;42.602;23.482;2022-07-18T02:42:44;94136.66;;;18.98;39.44
11806;BME280;5960;42.602;23.482;2022-07-18T02:45:11;94133.09;;;19.04;39.46
11806;BME280;5960;42.602;23.482;2022-07-18T02:47:40;94138.78;;;18.89;40.10
11806;BME280;5960;42.602;23.482;2022-07-18T02:50:07;94147.78;;;18.95;39.61
11806;BME280;5960;42.602;23.482;2022-07-18T02:52:34;94143.19;;;19.02;39.39
11806;BME280;5960;42.602;23.482;2022-07-18T02:55:01;94139.94;;;19.00;39.26
11806;BME280;5960;42.602;23.482;2022-07-18T02:57:28;94146.44;;;18.86;39.64
11806;BME280;5960;42.602;23.482;2022-07-18T02:59:55;94158.97;;;18.85;39.50
11806;BME280;5960;42.602;23.482;2022-07-18T03:02:22;94152.88;;;18.78;40.00
11806;BME280;5960;42.602;23.482;2022-07-18T03:04:50;94146.28;;;18.80;40.09
11806;BME280;5960;42.602;23.482;2022-07-18T03:07:17;94140.00;;;18.75;40.07
11806;BME280;5960;42.602;23.482;2022-07-18T03:24:32;94146.38;;;19.11;39.20
11806;BME280;5960;42.602;23.482;2022-07-18T03:26:59;94148.84;;;19.24;39.75
11806;BME280;5960;42.602;23.482;2022-07-18T03:29:26;94151.84;;;19.16;41.20
11806;BME280;5960;42.602;23.482;2022-07-18T03:31:53;94153.78;;;19.09;42.70
11806;BME280;5960;42.602;23.482;2022-07-18T03:34:19;94147.34;;;18.98;43.84
11806;BME280;5960;42.602;23.482;2022-07-18T03:36:46;94150.94;;;18.85;45.00
11806;BME280;5960;42.602;23.482;2022-07-18T03:39:13;94152.81;;;18.85;45.56
11806;BME280;5960;42.602;23.482;2022-07-18T03:41:41;94153.47;;;18.80;45.68
11806;BME280;5960;42.602;23.482;2022-07-18T03:44:08;94158.72;;;18.68;45.71
11806;BME280;5960;42.602;23.482;2022-07-18T03:46:35;94161.63;;;18.67;46.82
11806;BME280;5960;42.602;23.482;2022-07-18T03:49:02;94162.91;;;18.64;46.46
11806;BME280;5960;42.602;23.482;2022-07-18T03:51:29;94152.94;;;18.71;46.31
11806;BME280;5960;42.602;23.482;2022-07-18T03:53:56;94154.31;;;18.62;46.13
11806;BME280;5960;42.602;23.482;2022-07-18T03:56:23;94160.78;;;18.47;45.31
11806;BME280;5960;42.602;23.482;2022-07-18T03:58:51;94160.53;;;18.56;44.95
11806;BME280;5960;42.602;23.482;2022-07-18T04:01:18;94158.44;;;18.76;43.02
11806;BME280;5960;42.602;23.482;2022-07-18T04:03:44;94164.66;;;18.89;42.38
11806;BME280;5960;42.602;23.482;2022-07-18T04:06:11;94153.03;;;19.02;40.84
11806;BME280;5960;42.602;23.482;2022-07-18T04:08:38;94159.41;;;19.19;40.60
11806;BME280;5960;42.602;23.482;2022-07-18T04:11:05;94165.75;;;19.37;40.71
11806;BME280;5960;42.602;23.482;2022-07-18T04:13:31;94165.97;;;19.35;39.42
11806;BME280;5960;42.602;23.482;2022-07-18T04:15:59;94163.03;;;19.55;39.54
11806;BME280;5960;42.602;23.482;2022-07-18T04:18:26;94165.59;;;19.62;40.22
11806;BME280;5960;42.602;23.482;2022-07-18T04:20:53;94161.25;;;19.80;40.82
11806;BME280;5960;42.602;23.482;2022-07-18T04:23:20;94154.97;;;19.86;40.68
11806;BME280;5960;42.602;23.482;2022-07-18T04:25:47;94153.66;;;19.95;40.54
11806;BME280;5960;42.602;23.482;2022-07-18T04:28:14;94159.81;;;20.08;40.27
11806;BME280;5960;42.602;23.482;2022-07-18T04:30:42;94149.47;;;20.11;39.24
11806;BME280;5960;42.602;23.482;2022-07-18T04:33:11;94159.81;;;20.20;39.49
11806;BME280;5960;42.602;23.482;2022-07-18T04:35:38;94159.50;;;20.28;38.95
11806;BME280;5960;42.602;23.482;2022-07-18T04:38:06;94157.28;;;20.37;39.19
11806;BME280;5960;42.602;23.482;2022-07-18T04:40:34;94156.22;;;20.50;39.75
11806;BME280;5960;42.602;23.482;2022-07-18T04:43:01;94155.97;;;20.63;40.02
11806;BME280;5960;42.602;23.482;2022-07-18T04:45:28;94157.50;;;20.71;40.23
11806;BME280;5960;42.602;23.482;2022-07-18T04:47:55;94163.09;;;20.81;40.83
11806;BME280;5960;42.602;23.482;2022-07-18T04:50:23;94156.34;;;20.91;41.29
11806;BME280;5960;42.602;23.482;2022-07-18T04:52:51;94147.91;;;20.99;42.42
11806;BME280;5960;42.602;23.482;2022-07-18T04:55:19;94146.19;;;21.04;41.07
11806;BME280;5960;42.602;23.482;2022-07-18T04:57:47;94146.47;;;21.20;40.75
11806;BME280;5960;42.602;23.482;2022-07-18T05:00:15;94152.59;;;21.32;41.33
11806;BME280;5960;42.602;23.482;2022-07-18T05:02:43;94149.16;;;21.49;39.80
11806;BME280;5960;42.602;23.482;2022-07-18T05:05:13;94149.00;;;21.56;40.04
11806;BME280;5960;42.602;23.482;2022-07-18T05:07:42;94146.66;;;21.59;39.36
11806;BME280;5960;42.602;23.482;2022-07-18T05:10:11;94153.88;;;21.71;36.57
11806;BME280;5960;42.602;23.482;2022-07-18T05:12:39;94152.41;;;21.80;38.20
11806;BME280;5960;42.602;23.482;2022-07-18T05:15:07;94156.66;;;21.93;38.56
11806;BME280;5960;42.602;23.482;2022-07-18T05:17:34;94153.66;;;22.06;38.76
11806;BME280;5960;42.602;23.482;2022-07-18T05:20:01;94153.50;;;22.13;39.75
11806;BME280;5960;42.602;23.482;2022-07-18T05:22:29;94146.75;;;22.28;38.05
11806;BME280;5960;42.602;23.482;2022-07-18T05:24:57;94155.53;;;22.40;38.07
11806;BME280;5960;42.602;23.482;2022-07-18T05:27:24;94150.59;;;22.49;36.73
11806;BME280;5960;42.602;23.482;2022-07-18T05:29:51;94154.47;;;22.58;36.08
11806;BME280;5960;42.602;23.482;2022-07-18T05:32:18;94156.50;;;22.68;37.74
11806;BME280;5960;42.602;23.482;2022-07-18T05:34:44;94159.06;;;22.80;38.29
11806;BME280;5960;42.602;23.482;2022-07-18T05:37:11;94162.19;;;22.72;37.13
11806;BME280;5960;42.602;23.482;2022-07-18T05:39:38;94167.09;;;22.58;36.03
11806;BME280;5960;42.602;23.482;2022-07-18T05:42:06;94153.56;;;22.69;36.83
11806;BME280;5960;42.602;23.482;2022-07-18T05:44:33;94163.53;;;22.91;37.12
11806;BME280;5960;42.602;23.482;2022-07-18T05:47:00;94157.53;;;23.06;37.52
11806;BME280;5960;42.602;23.482;2022-07-18T05:49:27;94166.13;;;23.25;40.05
11806;BME280;5960;42.602;23.482;2022-07-18T05:51:54;94159.28;;;23.40;39.37
11806;BME280;5960;42.602;23.482;2022-07-18T05:54:20;94164.03;;;23.55;38.77
11806;BME280;5960;42.602;23.482;2022-07-18T05:56:48;94150.81;;;23.53;38.64
11806;BME280;5960;42.602;23.482;2022-07-18T05:59:17;94155.97;;;23.55;37.79
11806;BME280;5960;42.602;23.482;2022-07-18T06:01:44;94148.47;;;23.57;37.47
11806;BME280;5960;42.602;23.482;2022-07-18T06:04:10;94146.13;;;23.66;37.25
11806;BME280;5960;42.602;23.482;2022-07-18T06:06:38;94152.06;;;23.68;34.51
11806;BME280;5960;42.602;23.482;2022-07-18T06:09:05;94160.28;;;23.83;34.76
11806;BME280;5960;42.602;23.482;2022-07-18T06:11:33;94147.81;;;23.99;33.79
11806;BME280;5960;42.602;23.482;2022-07-18T06:14:01;94150.34;;;24.11;35.26
11806;BME280;5960;42.602;23.482;2022-07-18T06:16:30;94146.34;;;24.19;32.95
11806;BME280;5960;42.602;23.482;2022-07-18T06:18:58;94145.00;;;24.16;32.51
11806;BME280;5960;42.602;23.482;2022-07-18T06:21:25;94153.97;;;24.27;32.40
11806;BME280;5960;42.602;23.482;2022-07-18T06:23:52;94153.22;;;24.37;33.31
11806;BME280;5960;42.602;23.482;2022-07-18T06:26:19;94157.91;;;24.52;33.23
11806;BME280;5960;42.602;23.482;2022-07-18T06:28:46;94153.13;;;24.64;32.92
11806;BME280;5960;42.602;23.482;2022-07-18T06:31:12;94153.50;;;24.78;32.76
11806;BME280;5960;42.602;23.482;2022-07-18T06:33:43;94149.53;;;24.91;33.08
11806;BME280;5960;42.602;23.482;2022-07-18T06:36:10;94151.19;;;24.98;31.38
11806;BME280;5960;42.602;23.482;2022-07-18T06:38:38;94150.72;;;25.11;31.61
11806;BME280;5960;42.602;23.482;2022-07-18T06:41:05;94149.34;;;25.08;31.57
11806;BME280;5960;42.602;23.482;2022-07-18T06:43:33;94152.56;;;25.11;31.70
11806;BME280;5960;42.602;23.482;2022-07-18T06:46:00;94149.59;;;25.07;32.05
11806;BME280;5960;42.602;23.482;2022-07-18T06:48:27;94157.19;;;25.15;33.63
11806;BME280;5960;42.602;23.482;2022-07-18T06:51:00;94149.97;;;25.26;34.66
11806;BME280;5960;42.602;23.482;2022-07-18T06:53:27;94143.81;;;25.41;35.30
11806;BME280;5960;42.602;23.482;2022-07-18T06:55:54;94147.66;;;25.56;33.65
11806;BME280;5960;42.602;23.482;2022-07-18T06:58:21;94142.81;;;25.73;33.52
11806;BME280;5960;42.602;23.482;2022-07-18T07:00:48;94151.47;;;25.80;33.33
11806;BME280;5960;42.602;23.482;2022-07-18T07:03:15;94158.53;;;26.02;32.28
11806;BME280;5960;42.602;23.482;2022-07-18T07:05:41;94156.38;;;26.04;31.07
11806;BME280;5960;42.602;23.482;2022-07-18T07:08:09;94156.94;;;26.17;31.37
11806;BME280;5960;42.602;23.482;2022-07-18T07:10:37;94153.44;;;26.32;31.56
11806;BME280;5960;42.602;23.482;2022-07-18T07:13:04;94164.50;;;26.40;31.24
11806;BME280;5960;42.602;23.482;2022-07-18T07:15:31;94165.88;;;26.48;30.74
11806;BME280;5960;42.602;23.482;2022-07-18T07:17:58;94162.88;;;26.50;31.57
11806;BME280;5960;42.602;23.482;2022-07-18T07:20:25;94167.72;;;26.63;30.16
11806;BME280;5960;42.602;23.482;2022-07-18T07:22:53;94152.03;;;26.76;29.71
11806;BME280;5960;42.602;23.482;2022-07-18T07:25:22;94161.53;;;26.52;30.61
11806;BME280;5960;42.602;23.482;2022-07-18T07:27:49;94166.38;;;26.55;30.70
11806;BME280;5960;42.602;23.482;2022-07-18T07:30:17;94165.56;;;26.70;29.71
11806;BME280;5960;42.602;23.482;2022-07-18T07:32:44;94162.84;;;26.60;28.23
11806;BME280;5960;42.602;23.482;2022-07-18T07:35:14;94161.78;;;26.66;29.61
11806;BME280;5960;42.602;23.482;2022-07-18T07:37:43;94153.38;;;26.73;30.39
11806;BME280;5960;42.602;23.482;2022-07-18T07:40:10;94150.41;;;26.90;29.20
11806;BME280;5960;42.602;23.482;2022-07-18T07:42:39;94157.41;;;26.96;28.66
11806;BME280;5960;42.602;23.482;2022-07-18T07:45:07;94160.59;;;27.14;28.83
11806;BME280;5960;42.602;23.482;2022-07-18T07:47:34;94165.69;;;27.31;28.54
11806;BME280;5960;42.602;23.482;2022-07-18T07:50:02;94162.41;;;27.39;28.02
11806;BME280;5960;42.602;23.482;2022-07-18T07:52:29;94158.09;;;27.38;28.42
11806;BME280;5960;42.602;23.482;2022-07-18T07:54:56;94161.84;;;27.47;27.75
11806;BME280;5960;42.602;23.482;2022-07-18T07:57:23;94162.13;;;27.51;27.17
11806;BME280;5960;42.602;23.482;2022-07-18T07:59:51;94159.31;;;27.67;28.66
11806;BME280;5960;42.602;23.482;2022-07-18T08:02:18;94161.72;;;27.73;28.72
11806;BME280;5960;42.602;23.482;2022-07-18T08:04:45;94150.00;;;27.83;28.21
11806;BME280;5960;42.602;23.482;2022-07-18T08:07:11;94159.22;;;27.82;28.27
11806;BME280;5960;42.602;23.482;2022-07-18T08:09:38;94163.00;;;27.86;28.26
11806;BME280;5960;42.602;23.482;2022-07-18T08:12:05;94166.47;;;27.92;27.75
11806;BME280;5960;42.602;23.482;2022-07-18T08:14:32;94163.22;;;27.95;28.22
11806;BME280;5960;42.602;23.482;2022-07-18T08:17:04;94161.31;;;27.96;27.43
11806;BME280;5960;42.602;23.482;2022-07-18T08:19:31;94156.91;;;28.05;26.56
11806;BME280;5960;42.602;23.482;2022-07-18T08:21:58;94166.88;;;28.20;28.21
11806;BME280;5960;42.602;23.482;2022-07-18T08:24:24;94167.44;;;28.17;28.46
11806;BME280;5960;42.602;23.482;2022-07-18T08:26:51;94170.03;;;28.32;27.55
11806;BME280;5960;42.602;23.482;2022-07-18T08:29:18;94159.84;;;28.48;27.02
11806;BME280;5960;42.602;23.482;2022-07-18T08:31:45;94163.94;;;28.46;27.73
11806;BME280;5960;42.602;23.482;2022-07-18T08:34:13;94165.69;;;28.66;27.73
11806;BME280;5960;42.602;23.482;2022-07-18T08:36:39;94165.09;;;28.69;26.77
11806;BME280;5960;42.602;23.482;2022-07-18T08:39:06;94162.31;;;28.79;27.51
11806;BME280;5960;42.602;23.482;2022-07-18T08:41:34;94162.63;;;28.73;26.93
11806;BME280;5960;42.602;23.482;2022-07-18T08:44:02;94162.31;;;28.79;26.13
11806;BME280;5960;42.602;23.482;2022-07-18T08:46:31;94153.25;;;28.60;27.18
11806;BME280;5960;42.602;23.482;2022-07-18T08:48:59;94163.84;;;28.56;27.63
11806;BME280;5960;42.602;23.482;2022-07-18T08:51:27;94173.88;;;28.56;27.93
11806;BME280;5960;42.602;23.482;2022-07-18T08:53:54;94165.69;;;28.66;26.44
11806;BME280;5960;42.602;23.482;2022-07-18T08:56:21;94165.03;;;28.79;28.09
11806;BME280;5960;42.602;23.482;2022-07-18T08:58:47;94161.75;;;28.82;26.60
11806;BME280;5960;42.602;23.482;2022-07-18T09:01:14;94160.13;;;29.06;26.93
11806;BME280;5960;42.602;23.482;2022-07-18T09:03:41;94163.44;;;29.27;27.67
11806;BME280;5960;42.602;23.482;2022-07-18T09:06:09;94163.09;;;29.09;27.12
11806;BME280;5960;42.602;23.482;2022-07-18T09:08:38;94162.72;;;28.92;27.37
11806;BME280;5960;42.602;23.482;2022-07-18T09:11:09;94151.66;;;28.88;25.92
11806;BME280;5960;42.602;23.482;2022-07-18T09:13:37;94158.22;;;28.82;27.18
11806;BME280;5960;42.602;23.482;2022-07-18T09:16:07;94156.91;;;29.04;27.76
11806;BME280;5960;42.602;23.482;2022-07-18T09:18:36;94142.00;;;29.01;27.35
11806;BME280;5960;42.602;23.482;2022-07-18T09:21:04;94153.25;;;28.89;27.61
11806;BME280;5960;42.602;23.482;2022-07-18T09:23:33;94149.53;;;28.50;27.70
11806;BME280;5960;42.602;23.482;2022-07-18T09:26:02;94153.66;;;28.72;28.27
11806;BME280;5960;42.602;23.482;2022-07-18T09:28:45;94153.78;;;29.16;26.63
11806;BME280;5960;42.602;23.482;2022-07-18T09:31:17;94153.44;;;29.47;27.89
11806;BME280;5960;42.602;23.482;2022-07-18T09:33:51;94153.63;;;29.75;27.78
11806;BME280;5960;42.602;23.482;2022-07-18T09:36:18;94152.78;;;29.98;28.70
11806;BME280;5960;42.602;23.482;2022-07-18T09:38:45;94144.91;;;29.97;27.44
11806;BME280;5960;42.602;23.482;2022-07-18T09:41:13;94144.09;;;30.15;28.15
11806;BME280;5960;42.602;23.482;2022-07-18T09:43:40;94140.22;;;30.36;29.72
11806;BME280;5960;42.602;23.482;2022-07-18T09:46:07;94148.44;;;30.50;27.12
11806;BME280;5960;42.602;23.482;2022-07-18T09:48:34;94142.41;;;30.53;26.65
11806;BME280;5960;42.602;23.482;2022-07-18T09:51:02;94142.56;;;30.61;25.48
11806;BME280;5960;42.602;23.482;2022-07-18T09:53:31;94132.41;;;30.81;25.54
11806;BME280;5960;42.602;23.482;2022-07-18T09:56:00;94138.69;;;30.96;26.50
11806;BME280;5960;42.602;23.482;2022-07-18T09:58:37;94141.91;;;31.12;25.33
11806;BME280;5960;42.602;23.482;2022-07-18T10:01:06;94132.94;;;31.11;25.37
11806;BME280;5960;42.602;23.482;2022-07-18T10:03:34;94146.06;;;31.23;25.81
11806;BME280;5960;42.602;23.482;2022-07-18T10:06:02;94140.22;;;31.30;24.71
11806;BME280;5960;42.602;23.482;2022-07-18T10:08:30;94137.72;;;31.19;24.73
11806;BME280;5960;42.602;23.482;2022-07-18T10:10:58;94128.03;;;31.41;25.90
11806;BME280;5960;42.602;23.482;2022-07-18T10:13:28;94138.97;;;31.64;25.30
11806;BME280;5960;42.602;23.482;2022-07-18T10:15:55;94131.78;;;31.82;25.61
11806;BME280;5960;42.602;23.482;2022-07-18T10:18:23;94132.34;;;31.93;24.26
11806;BME280;5960;42.602;23.482;2022-07-18T10:20:53;94122.44;;;31.97;24.85
11806;BME280;5960;42.602;23.482;2022-07-18T10:23:24;94126.41;;;32.28;25.30
11806;BME280;5960;42.602;23.482;2022-07-18T10:26:11;94120.53;;;32.34;24.08
11806;BME280;5960;42.602;23.482;2022-07-18T10:32:02;94110.59;;;32.38;23.83
11806;BME280;5960;42.602;23.482;2022-07-18T10:34:32;94114.72;;;32.59;23.37
11806;BME280;5960;42.602;23.482;2022-07-18T10:37:09;94111.16;;;32.81;23.93
11806;BME280;5960;42.602;23.482;2022-07-18T10:39:37;94106.50;;;32.81;22.89
11806;BME280;5960;42.602;23.482;2022-07-18T10:42:19;94108.31;;;32.86;23.58
11806;BME280;5960;42.602;23.482;2022-07-18T10:44:49;94110.34;;;32.49;22.72
11806;BME280;5960;42.602;23.482;2022-07-18T10:47:19;94108.56;;;32.44;22.08
11806;BME280;5960;42.602;23.482;2022-07-18T10:50:09;94111.97;;;31.90;23.82
11806;BME280;5960;42.602;23.482;2022-07-18T10:52:55;94099.03;;;32.19;22.08
11806;BME280;5960;42.602;23.482;2022-07-18T10:55:28;94101.16;;;32.45;22.86
11806;BME280;5960;42.602;23.482;2022-07-18T10:58:15;94097.22;;;32.82;22.71
11806;BME280;5960;42.602;23.482;2022-07-18T11:00:43;94097.09;;;32.88;21.30
11806;BME280;5960;42.602;23.482;2022-07-18T11:03:14;94096.25;;;32.10;23.50
11806;BME280;5960;42.602;23.482;2022-07-18T11:05:43;94088.81;;;32.02;23.42
11806;BME280;5960;42.602;23.482;2022-07-18T11:08:18;94080.72;;;32.10;22.39
11806;BME280;5960;42.602;23.482;2022-07-18T11:11:10;94081.19;;;32.58;21.74
11806;BME280;5960;42.602;23.482;2022-07-18T11:13:39;94072.78;;;32.46;20.68
11806;BME280;5960;42.602;23.482;2022-07-18T11:16:10;94079.53;;;32.80;22.55
11806;BME280;5960;42.602;23.482;2022-07-18T11:21:58;94075.13;;;33.77;21.60
11806;BME280;5960;42.602;23.482;2022-07-18T11:24:26;94070.00;;;34.02;21.63
11806;BME280;5960;42.602;23.482;2022-07-18T11:26:53;94076.88;;;34.34;20.27
11806;BME280;5960;42.602;23.482;2022-07-18T11:29:20;94071.88;;;34.45;20.76
11806;BME280;5960;42.602;23.482;2022-07-18T11:31:48;94068.41;;;34.18;20.92
11806;BME280;5960;42.602;23.482;2022-07-18T11:34:16;94076.59;;;34.18;21.19
11806;BME280;5960;42.602;23.482;2022-07-18T11:36:44;94067.72;;;34.39;21.59
11806;BME280;5960;42.602;23.482;2022-07-18T11:39:13;94065.69;;;34.66;21.55
11806;BME280;5960;42.602;23.482;2022-07-18T11:41:41;94067.03;;;34.60;21.72
11806;BME280;5960;42.602;23.482;2022-07-18T11:44:16;94069.16;;;34.54;21.61
11806;BME280;5960;42.602;23.482;2022-07-18T11:46:44;94067.03;;;34.60;21.06
11806;BME280;5960;42.602;23.482;2022-07-18T11:49:11;94059.63;;;34.60;21.09
11806;BME280;5960;42.602;23.482;2022-07-18T11:51:39;94061.19;;;34.70;21.76
11806;BME280;5960;42.602;23.482;2022-07-18T11:54:07;94059.72;;;34.82;20.78
11806;BME280;5960;42.602;23.482;2022-07-18T11:56:46;94064.78;;;35.09;19.84
11806;BME280;5960;42.602;23.482;2022-07-18T11:59:14;94060.41;;;35.08;18.98
11806;BME280;5960;42.602;23.482;2022-07-18T12:01:41;94052.03;;;35.05;20.01
11806;BME280;5960;42.602;23.482;2022-07-18T12:04:16;94054.56;;;35.19;20.15
11806;BME280;5960;42.602;23.482;2022-07-18T12:06:45;94055.91;;;35.34;19.66
11806;BME280;5960;42.602;23.482;2022-07-18T12:09:12;94061.28;;;35.30;19.43
11806;BME280;5960;42.602;23.482;2022-07-18T12:11:39;94049.66;;;35.33;19.69
11806;BME280;5960;42.602;23.482;2022-07-18T12:14:15;94047.00;;;35.46;19.05
11806;BME280;5960;42.602;23.482;2022-07-18T12:16:42;94044.91;;;35.43;19.39
11806;BME280;5960;42.602;23.482;2022-07-18T12:19:11;94043.63;;;35.40;19.12
11806;BME280;5960;42.602;23.482;2022-07-18T12:21:43;94038.59;;;35.21;19.79
11806;BME280;5960;42.602;23.482;2022-07-18T12:24:28;94049.59;;;35.12;20.76
11806;BME280;5960;42.602;23.482;2022-07-18T12:27:16;94043.81;;;35.05;19.08
11806;BME280;5960;42.602;23.482;2022-07-18T12:30:07;94043.72;;;34.92;18.33
11806;BME280;5960;42.602;23.482;2022-07-18T12:32:40;94041.84;;;34.75;19.51
11806;BME280;5960;42.602;23.482;2022-07-18T12:35:09;94039.97;;;34.58;19.20
11806;BME280;5960;42.602;23.482;2022-07-18T12:37:36;94039.09;;;33.57;18.78
11806;BME280;5960;42.602;23.482;2022-07-18T12:40:06;94037.50;;;33.39;20.85
11806;BME280;5960;42.602;23.482;2022-07-18T12:42:34;94042.50;;;33.98;20.83
11806;BME280;5960;42.602;23.482;2022-07-18T12:45:03;94036.69;;;34.26;19.13
11806;BME280;5960;42.602;23.482;2022-07-18T12:47:32;94034.53;;;34.49;19.40
11806;BME280;5960;42.602;23.482;2022-07-18T12:49:59;94031.94;;;34.92;19.96
11806;BME280;5960;42.602;23.482;2022-07-18T12:52:26;94036.66;;;35.21;19.53
11806;BME280;5960;42.602;23.482;2022-07-18T12:54:52;94033.78;;;35.48;18.31
11806;BME280;5960;42.602;23.482;2022-07-18T12:57:19;94025.34;;;35.74;17.99
11806;BME280;5960;42.602;23.482;2022-07-18T12:59:47;94028.00;;;35.83;18.72
11806;BME280;5960;42.602;23.482;2022-07-18T13:02:14;94035.59;;;35.65;18.21
11806;BME280;5960;42.602;23.482;2022-07-18T13:04:42;94028.66;;;35.37;17.19
11806;BME280;5960;42.602;23.482;2022-07-18T13:07:09;94028.28;;;35.48;16.81
11806;BME280;5960;42.602;23.482;2022-07-18T13:09:36;94014.75;;;35.43;16.57
11806;BME280;5960;42.602;23.482;2022-07-18T13:12:04;94025.28;;;34.72;16.51
11806;BME280;5960;42.602;23.482;2022-07-18T13:14:32;94012.88;;;33.21;16.12
11806;BME280;5960;42.602;23.482;2022-07-18T13:16:59;94018.94;;;33.00;18.93
11806;BME280;5960;42.602;23.482;2022-07-18T13:19:26;94007.69;;;32.53;18.94
11806;BME280;5960;42.602;23.482;2022-07-18T13:21:57;94008.84;;;32.69;20.71
11806;BME280;5960;42.602;23.482;2022-07-18T13:24:24;94006.22;;;33.05;20.16
11806;BME280;5960;42.602;23.482;2022-07-18T13:26:51;94008.31;;;32.99;18.78